createdAt,value
2019-02-28T00:00:07.489Z,99517.36
2019-02-28T00:02:39.611Z,99527.74
2019-02-28T00:05:11.639Z,99525.18
2019-02-28T00:07:43.236Z,99512.08
2019-02-28T00:10:14.944Z,99516.50
2019-02-28T00:12:48.082Z,99520.36
2019-02-28T00:15:20.235Z,99528.08
2019-02-28T00:17:52.165Z,99519.55
2019-02-28T00:20:23.856Z,99520.80
2019-02-28T00:22:55.794Z,99522.04
2019-02-28T00:25:27.901Z,99526.28
2019-02-28T00:27:59.677Z,99525.80
2019-02-28T00:30:31.328Z,99518.42
2019-02-28T00:33:02.949Z,99514.03
2019-02-28T00:35:34.685Z,99516.99
2019-02-28T00:38:06.410Z,99517.42
2019-02-28T00:40:39.231Z,99517.98
2019-02-28T00:43:10.764Z,99518.08
2019-02-28T00:45:42.332Z,99512.08
2019-02-28T00:48:14.033Z,99522.46
2019-02-28T00:50:45.798Z,99518.27
2019-02-28T00:53:17.564Z,99520.50
2019-02-28T00:55:49.448Z,99517.93
2019-02-28T00:58:21.070Z,99527.84
2019-02-28T01:00:52.651Z,99512.45
2019-02-28T01:03:27.439Z,99512.05
2019-02-28T01:05:57.508Z,99504.81
2019-02-28T01:08:29.402Z,99501.81
2019-02-28T01:11:02.475Z,99501.42
2019-02-28T01:13:34.174Z,99501.42
2019-02-28T01:16:05.777Z,99497.42
2019-02-28T01:18:37.438Z,99494.47
2019-02-28T01:21:09.329Z,99495.46
2019-02-28T01:23:41.113Z,99495.12
2019-02-28T01:26:20.798Z,99489.69
2019-02-28T01:28:52.677Z,99487.89
2019-02-28T01:31:23.963Z,99492.13
2019-02-28T01:33:56.009Z,99489.38
2019-02-28T01:36:28.841Z,99488.30
2019-02-28T01:39:00.639Z,99481.20
2019-02-28T01:41:32.288Z,99486.47
2019-02-28T01:44:04.115Z,99471.08
2019-02-28T01:46:35.673Z,99472.02
2019-02-28T01:49:07.357Z,99463.38
2019-02-28T01:51:38.834Z,99468.44
2019-02-28T01:54:10.445Z,99461.20
2019-02-28T01:56:42.342Z,99459.13
2019-02-28T01:59:13.947Z,99463.84
2019-02-28T02:01:45.549Z,99458.70
2019-02-28T02:04:17.247Z,99468.87
2019-02-28T02:06:48.880Z,99465.02
2019-02-28T02:09:20.807Z,99459.99
2019-02-28T02:11:52.826Z,99455.86
2019-02-28T02:14:24.415Z,99453.37
2019-02-28T02:16:58.241Z,99450.45
2019-02-28T02:19:29.266Z,99449.16
2019-02-28T02:22:00.869Z,99455.97
2019-02-28T02:24:32.522Z,99454.02
2019-02-28T02:27:04.171Z,99456.77
2019-02-28T02:29:37.051Z,99454.45
2019-02-28T02:32:08.723Z,99454.52
2019-02-28T02:34:40.736Z,99459.77
2019-02-28T02:37:12.337Z,99451.23
2019-02-28T02:39:44.009Z,99455.55
2019-02-28T02:42:15.713Z,99458.02
2019-02-28T02:44:47.504Z,99466.05
2019-02-28T02:47:19.107Z,99460.02
2019-02-28T02:49:55.985Z,99459.16
2019-02-28T02:52:29.947Z,99465.48
2019-02-28T02:54:57.688Z,99457.41
2019-02-28T02:57:29.483Z,99460.87
2019-02-28T03:00:00.993Z,99458.77
2019-02-28T03:02:34.228Z,99453.67
2019-02-28T03:05:06.086Z,99454.98
2019-02-28T03:07:37.701Z,99459.47
2019-02-28T03:10:10.473Z,99456.58
2019-02-28T03:12:42.179Z,99458.41
2019-02-28T03:15:15.490Z,99453.31
2019-02-28T03:17:48.765Z,99447.72
2019-02-28T03:20:20.587Z,99446.44
2019-02-28T03:22:52.118Z,99442.09
2019-02-28T03:25:28.101Z,99449.37
2019-02-28T03:27:58.348Z,99447.20
2019-02-28T03:30:33.314Z,99450.13
2019-02-28T03:33:04.581Z,99446.38
2019-02-28T03:35:43.362Z,99439.14
2019-02-28T03:38:11.631Z,99438.31
2019-02-28T03:40:44.233Z,99441.38
2019-02-28T03:43:15.829Z,99439.76
2019-02-28T03:45:48.185Z,99440.31
2019-02-28T03:48:19.950Z,99433.23
2019-02-28T03:50:55.399Z,99436.80
2019-02-28T03:53:25.384Z,99441.16
2019-02-28T03:55:57.290Z,99441.62
2019-02-28T03:58:29.179Z,99442.95
2019-02-28T04:01:00.788Z,99445.46
2019-02-28T04:03:33.687Z,99445.41
2019-02-28T04:06:06.251Z,99445.23
2019-02-28T04:08:37.888Z,99446.91
2019-02-28T04:11:09.554Z,99446.27
2019-02-28T04:13:41.056Z,99439.76
2019-02-28T04:16:12.584Z,99436.80
2019-02-28T04:18:46.380Z,99439.09
2019-02-28T04:21:17.501Z,99435.52
2019-02-28T04:23:49.277Z,99434.95
2019-02-28T04:26:21.067Z,99436.97
2019-02-28T04:28:54.684Z,99434.63
2019-02-28T04:31:26.054Z,99426.23
2019-02-28T04:33:57.880Z,99427.75
2019-02-28T04:36:35.419Z,99422.75
2019-02-28T04:39:06.619Z,99420.86
2019-02-28T04:41:38.369Z,99425.19
2019-02-28T04:44:09.971Z,99416.00
2019-02-28T04:46:41.834Z,99417.28
2019-02-28T04:49:13.584Z,99413.66
2019-02-28T04:51:47.402Z,99419.28
2019-02-28T04:54:19.210Z,99425.06
2019-02-28T04:56:50.678Z,99430.31
2019-02-28T04:59:22.593Z,99429.52
2019-02-28T05:01:54.133Z,99426.71
2019-02-28T05:04:25.628Z,99424.31
2019-02-28T05:06:57.113Z,99429.00
2019-02-28T05:09:28.796Z,99421.88
2019-02-28T05:12:04.961Z,99414.74
2019-02-28T05:14:33.640Z,99415.16
2019-02-28T05:17:05.351Z,99413.19
2019-02-28T05:19:36.952Z,99401.97
2019-02-28T05:22:08.712Z,99405.42
2019-02-28T05:24:42.684Z,99404.14
2019-02-28T05:27:15.310Z,99405.61
2019-02-28T05:29:47.030Z,99412.61
2019-02-28T05:32:18.688Z,99414.41
2019-02-28T05:34:50.994Z,99399.83
2019-02-28T05:37:23.691Z,99402.53
2019-02-28T05:39:55.430Z,99405.02
2019-02-28T05:42:27.030Z,99409.52
2019-02-28T05:44:58.891Z,99412.94
2019-02-28T05:47:32.452Z,99418.88
2019-02-28T05:50:04.010Z,99427.63
2019-02-28T05:52:35.703Z,99435.41
2019-02-28T05:55:07.871Z,99431.23
2019-02-28T05:57:43.257Z,99431.22
2019-02-28T06:00:14.210Z,99423.43
2019-02-28T06:02:46.031Z,99429.37
2019-02-28T06:05:17.707Z,99433.03
2019-02-28T06:07:49.579Z,99436.03
2019-02-28T06:10:24.629Z,99438.38
2019-02-28T06:12:54.576Z,99436.08
2019-02-28T06:15:26.202Z,99437.06
2019-02-28T06:17:58.143Z,99446.83
2019-02-28T06:20:29.871Z,99440.73
2019-02-28T06:23:01.612Z,99448.75
2019-02-28T06:25:33.126Z,99457.22
2019-02-28T06:28:04.610Z,99452.12
2019-02-28T06:30:36.361Z,99453.81
2019-02-28T06:33:08.017Z,99447.07
2019-02-28T06:35:39.681Z,99448.68
2019-02-28T06:38:11.403Z,99455.95
2019-02-28T06:40:43.440Z,99458.43
2019-02-28T06:43:15.076Z,99461.70
2019-02-28T06:45:49.416Z,99472.17
2019-02-28T06:48:25.814Z,99470.33
2019-02-28T06:50:54.564Z,99477.48
2019-02-28T06:53:27.144Z,99476.17
2019-02-28T06:55:58.852Z,99479.23
2019-02-28T06:58:33.276Z,99477.00
2019-02-28T07:01:04.157Z,99484.33
2019-02-28T07:03:38.798Z,99485.55
2019-02-28T07:06:09.525Z,99496.33
2019-02-28T07:08:41.208Z,99492.38
2019-02-28T07:11:12.902Z,99494.39
2019-02-28T07:13:44.548Z,99498.39
2019-02-28T07:16:17.183Z,99499.77
2019-02-28T07:18:52.924Z,99497.85
2019-02-28T07:21:22.940Z,99501.64
2019-02-28T07:23:55.667Z,99503.70
2019-02-28T07:26:28.807Z,99504.45
2019-02-28T07:29:01.197Z,99507.28
2019-02-28T07:31:33.318Z,99494.05
2019-02-28T07:34:05.159Z,99506.79
2019-02-28T07:36:36.847Z,99502.00
2019-02-28T07:39:10.147Z,99505.17
2019-02-28T07:41:42.011Z,99500.31
2019-02-28T07:44:13.701Z,99505.51
2019-02-28T07:46:45.844Z,99504.55
2019-02-28T07:49:17.686Z,99497.77
2019-02-28T07:51:49.326Z,99492.70
2019-02-28T07:54:21.367Z,99495.08
2019-02-28T07:56:53.421Z,99492.31
2019-02-28T07:59:25.063Z,99484.19
2019-02-28T08:01:56.616Z,99488.94
2019-02-28T08:04:28.158Z,99486.28
2019-02-28T08:06:59.778Z,99485.39
2019-02-28T08:09:32.848Z,99490.39
2019-02-28T08:12:04.825Z,99495.25
2019-02-28T08:14:36.992Z,99498.76
2019-02-28T08:17:09.951Z,99498.73
2019-02-28T09:20:41.338Z,99478.52
2019-02-28T09:23:12.559Z,99486.86
2019-02-28T09:25:44.534Z,99474.28
2019-02-28T09:28:16.869Z,99472.77
2019-02-28T09:30:49.060Z,99470.13
2019-02-28T09:33:23.198Z,99472.07
2019-02-28T09:35:55.230Z,99470.89
2019-02-28T09:38:27.201Z,99467.81
2019-02-28T09:41:01.362Z,99462.30
2019-02-28T09:43:35.370Z,99462.42
2019-02-28T09:46:09.013Z,99457.91
2019-02-28T09:48:40.942Z,99443.48
2019-02-28T09:51:12.769Z,99446.23
2019-02-28T09:53:47.334Z,99436.37
2019-02-28T09:56:19.496Z,99438.51
2019-02-28T09:58:51.513Z,99426.50
2019-02-28T10:01:24.461Z,99421.59
2019-02-28T10:03:56.629Z,99411.95
2019-02-28T10:06:28.534Z,99418.57
2019-02-28T10:09:00.523Z,99419.34
2019-02-28T10:11:32.638Z,99420.14
2019-02-28T10:14:04.355Z,99423.81
2019-02-28T10:16:39.139Z,99422.78
2019-02-28T10:19:14.174Z,99418.56
2019-02-28T10:21:51.911Z,99412.69
2019-02-28T10:24:19.894Z,99421.41
2019-02-28T10:26:52.393Z,99411.06
2019-02-28T10:29:24.987Z,99404.98
2019-02-28T10:31:56.960Z,99403.95
2019-02-28T10:34:28.557Z,99400.65
2019-02-28T10:37:00.255Z,99404.92
2019-02-28T10:39:31.786Z,99406.72
2019-02-28T10:42:05.164Z,99396.45
2019-02-28T10:44:36.695Z,99394.92
2019-02-28T10:47:09.123Z,99390.63
2019-02-28T10:49:40.851Z,99385.64
2019-02-28T10:52:13.901Z,99392.09
2019-02-28T10:54:48.671Z,99393.53
2019-02-28T10:57:19.319Z,99382.47
2019-02-28T10:59:51.591Z,99386.28
2019-02-28T11:02:23.653Z,99383.64
2019-02-28T11:04:56.120Z,99380.91
2019-02-28T11:07:30.936Z,99384.78
2019-02-28T11:10:03.448Z,99379.50
2019-02-28T11:12:35.026Z,99364.58
2019-02-28T11:15:10.415Z,99368.00
2019-02-28T11:17:41.511Z,99356.70
2019-02-28T11:20:21.822Z,99365.50
2019-02-28T11:22:47.867Z,99361.83
2019-02-28T11:25:20.696Z,99358.28
2019-02-28T11:27:53.720Z,99360.68
2019-02-28T11:30:27.693Z,99353.55
2019-02-28T11:33:03.318Z,99348.88
2019-02-28T11:35:34.606Z,99339.88
2019-02-28T11:38:07.202Z,99333.46
2019-02-28T11:40:43.838Z,99328.02
2019-02-28T11:43:15.775Z,99329.50
2019-02-28T11:45:49.044Z,99316.67
2019-02-28T11:48:21.320Z,99317.44
2019-02-28T11:50:53.695Z,99308.46
2019-02-28T11:53:25.468Z,99304.95
2019-02-28T11:55:57.350Z,99307.50
2019-02-28T11:58:30.450Z,99308.58
2019-02-28T12:01:02.546Z,99304.23
2019-02-28T12:03:35.550Z,99296.14
2019-02-28T12:06:08.276Z,99299.81
2019-02-28T12:08:41.643Z,99293.89
2019-02-28T12:11:13.674Z,99291.00
2019-02-28T12:13:45.886Z,99282.75
2019-02-28T12:16:19.240Z,99276.70
2019-02-28T12:18:51.322Z,99277.86
2019-02-28T12:21:23.139Z,99271.77
2019-02-28T12:23:57.359Z,99268.66
2019-02-28T12:26:28.422Z,99267.34
2019-02-28T12:29:00.202Z,99254.28
2019-02-28T12:31:35.336Z,99248.55
2019-02-28T12:34:05.294Z,99236.62
2019-02-28T12:36:37.041Z,99234.18
2019-02-28T12:39:10.487Z,99229.89
2019-02-28T12:41:42.099Z,99232.23
2019-02-28T12:44:15.391Z,99220.98
2019-02-28T12:46:47.424Z,99215.91
2019-02-28T12:49:22.219Z,99216.66
2019-02-28T12:51:52.711Z,99218.11
2019-02-28T12:54:25.949Z,99203.94
2019-02-28T12:56:57.856Z,99192.10
2019-02-28T12:59:29.581Z,99182.59
2019-02-28T13:02:01.197Z,99183.58
2019-02-28T13:04:35.867Z,99190.67
2019-02-28T13:07:06.121Z,99167.60
2019-02-28T13:09:38.178Z,99170.94
2019-02-28T13:12:12.140Z,99168.05
2019-02-28T13:14:43.670Z,99155.13
2019-02-28T13:17:16.156Z,99149.66
2019-02-28T13:19:47.999Z,99152.91
2019-02-28T13:22:23.325Z,99145.96
2019-02-28T13:24:53.413Z,99143.86
2019-02-28T13:27:25.092Z,99140.70
2019-02-28T13:29:56.700Z,99148.67
2019-02-28T13:32:28.417Z,99145.35
2019-02-28T13:35:03.071Z,99142.59
2019-02-28T13:37:37.452Z,99137.88
2019-02-28T13:40:09.470Z,99138.72
2019-02-28T13:42:42.323Z,99131.89
2019-02-28T13:45:22.161Z,99121.48
2019-02-28T13:47:50.089Z,99138.88
2019-02-28T13:50:25.868Z,99124.99
2019-02-28T13:53:02.534Z,99124.66
2019-02-28T13:55:31.064Z,99115.71
2019-02-28T13:58:03.302Z,99122.68
2019-02-28T14:00:35.293Z,99116.20
2019-02-28T14:03:10.329Z,99115.42
2019-02-28T14:05:44.223Z,99120.45
2019-02-28T14:08:15.991Z,99114.43
2019-02-28T14:10:48.019Z,99114.28
2019-02-28T14:13:20.116Z,99107.59
2019-02-28T14:15:53.080Z,99122.31
2019-02-28T14:18:27.514Z,99103.53
2019-02-28T14:21:03.177Z,99093.41
2019-02-28T14:23:34.838Z,99101.13
2019-02-28T14:26:07.442Z,99105.99
2019-02-28T14:28:39.535Z,99105.99
2019-02-28T14:31:14.008Z,99093.22
2019-02-28T14:33:46.575Z,99094.05
2019-02-28T14:36:21.550Z,99079.75
2019-02-28T14:38:54.338Z,99111.00
2019-02-28T14:41:28.447Z,99088.41
2019-02-28T14:44:00.176Z,99077.91
2019-02-28T14:46:34.652Z,99087.81
2019-02-28T14:49:06.809Z,99072.44
2019-02-28T14:51:40.734Z,99071.42
2019-02-28T14:54:12.683Z,99085.75
2019-02-28T14:56:45.676Z,99075.90
2019-02-28T14:59:17.937Z,99073.47
2019-02-28T15:01:53.192Z,99064.69
2019-02-28T15:04:26.670Z,99063.17
2019-02-28T15:07:03.043Z,99048.91
2019-02-28T15:09:36.257Z,99065.02
2019-02-28T15:12:13.963Z,99056.52
2019-02-28T15:14:46.051Z,99056.77
2019-02-28T15:17:18.134Z,99056.28
2019-02-28T15:19:49.823Z,99056.77
2019-02-28T15:22:21.781Z,99050.91
2019-02-28T15:24:53.938Z,99045.25
2019-02-28T15:27:27.100Z,99048.34
2019-02-28T15:29:59.816Z,99046.95
2019-02-28T15:32:33.952Z,99049.11
2019-02-28T15:35:07.210Z,99044.50
2019-02-28T15:37:40.168Z,99043.61
2019-02-28T15:40:16.378Z,99036.64
2019-02-28T15:42:49.263Z,99065.13
2019-02-28T15:45:23.074Z,99044.87
2019-02-28T15:48:00.241Z,99027.79
2019-02-28T15:50:34.310Z,99035.11
2019-02-28T15:53:11.280Z,99033.26
2019-02-28T15:55:44.678Z,99038.55
2019-02-28T15:58:16.794Z,99031.67
2019-02-28T16:00:48.825Z,99035.09
2019-02-28T16:03:23.897Z,99029.31
2019-02-28T16:05:57.174Z,99031.92
2019-02-28T16:08:30.085Z,99024.43
2019-02-28T16:11:03.316Z,99027.70
2019-02-28T16:13:35.458Z,99030.99
2019-02-28T16:16:07.531Z,99035.75
2019-02-28T16:18:40.655Z,99034.09
2019-02-28T16:21:12.780Z,99040.69
2019-02-28T16:23:45.186Z,99043.95
2019-02-28T16:26:21.734Z,99034.44
2019-02-28T16:28:52.800Z,99037.13
2019-02-28T16:31:25.462Z,99036.09
2019-02-28T16:34:04.896Z,99039.92
2019-02-28T16:36:30.768Z,99035.58
2019-02-28T16:39:02.794Z,99035.77
2019-02-28T16:41:36.847Z,99035.19
2019-02-28T16:44:09.156Z,99034.38
2019-02-28T16:46:40.816Z,99032.18
2019-02-28T16:49:12.983Z,99029.12
2019-02-28T16:51:44.835Z,99034.39
2019-02-28T16:54:19.305Z,99033.89
2019-02-28T16:56:50.734Z,99033.03
2019-02-28T16:59:22.596Z,99030.88
2019-02-28T17:01:55.646Z,99024.64
2019-02-28T17:04:27.847Z,99029.39
2019-02-28T17:07:00.451Z,99040.49
2019-02-28T17:09:50.637Z,99039.42
2019-02-28T17:12:39.506Z,99039.95
2019-02-28T17:15:29.539Z,99038.43
2019-02-28T17:18:06.491Z,99028.29
2019-02-28T17:20:40.754Z,99027.45
2019-02-28T17:23:12.789Z,99022.50
2019-02-28T17:25:45.164Z,99030.97
2019-02-28T17:28:51.023Z,99030.15
2019-02-28T17:31:44.573Z,99020.75
2019-02-28T17:34:24.421Z,99025.77
2019-02-28T17:36:57.189Z,99018.73
2019-02-28T17:39:30.682Z,99032.31
2019-02-28T17:42:08.600Z,99035.52
2019-02-28T17:45:15.603Z,99023.59
2019-02-28T17:48:35.758Z,99033.84
2019-02-28T17:51:49.195Z,99034.05
2019-02-28T17:54:59.183Z,99033.08
2019-02-28T17:58:08.692Z,99035.23
2019-02-28T18:01:46.243Z,99047.16
2019-02-28T18:05:18.589Z,99044.95
2019-02-28T18:08:44.858Z,99045.38
2019-02-28T18:12:18.494Z,99047.34
2019-02-28T18:15:22.962Z,99045.23
2019-02-28T18:18:51.312Z,99044.30
2019-02-28T18:22:12.853Z,99052.27
2019-02-28T18:26:02.428Z,99049.42
2019-02-28T18:29:40.556Z,99048.89
2019-02-28T18:32:16.822Z,99044.70
2019-02-28T18:34:52.740Z,99051.37
2019-02-28T18:37:26.651Z,99046.18
2019-02-28T18:40:01.662Z,99037.04
2019-02-28T18:42:34.999Z,99042.17
2019-02-28T18:45:09.721Z,99050.05
2019-02-28T18:47:43.893Z,99045.82
2019-02-28T18:50:17.904Z,99054.13
2019-02-28T18:52:52.693Z,99051.03
2019-02-28T18:55:34.643Z,99048.19
2019-02-28T18:58:03.457Z,99043.69
2019-02-28T19:00:37.913Z,99032.44
2019-02-28T19:03:11.837Z,99033.84
2019-02-28T19:05:45.115Z,99030.42
2019-02-28T19:08:20.028Z,99030.03
2019-02-28T19:10:55.069Z,99023.77
2019-02-28T19:13:30.966Z,99029.72
2019-02-28T19:16:05.045Z,99020.88
2019-02-28T19:18:40.686Z,99020.94
2019-02-28T19:21:15.674Z,99025.08
2019-02-28T19:23:49.873Z,99022.12
2019-02-28T19:26:23.617Z,99022.97
2019-02-28T19:28:57.225Z,99025.86
2019-02-28T19:31:31.014Z,99022.23
2019-02-28T19:34:05.001Z,99026.25
2019-02-28T19:36:39.905Z,99017.78
2019-02-28T19:39:13.197Z,99019.77
2019-02-28T19:41:46.963Z,99014.95
2019-02-28T19:44:18.849Z,99021.45
2019-02-28T19:46:51.323Z,99017.55
2019-02-28T19:49:23.343Z,99011.31
2019-02-28T19:51:56.140Z,99015.23
2019-02-28T19:54:29.575Z,99017.09
2019-02-28T19:57:02.915Z,99019.22
2019-02-28T19:59:34.973Z,99029.63
2019-02-28T20:02:07.513Z,99033.33
2019-02-28T20:04:41.617Z,99039.30
2019-02-28T20:07:16.556Z,99041.13
2019-02-28T20:09:48.635Z,99040.48
2019-02-28T20:12:20.629Z,99040.63
2019-02-28T20:14:56.290Z,99042.27
2019-02-28T20:17:28.750Z,99033.42
2019-02-28T20:20:02.928Z,99032.87
2019-02-28T20:22:36.069Z,99032.98
2019-02-28T20:25:10.390Z,99025.52
2019-02-28T20:27:44.455Z,99027.37
2019-02-28T20:30:18.708Z,99028.83
2019-02-28T20:32:51.870Z,99025.02
2019-02-28T20:35:26.870Z,99021.17
2019-02-28T20:37:59.938Z,99019.31
2019-02-28T20:40:32.562Z,99014.31
2019-02-28T20:43:04.989Z,99023.16
2019-02-28T20:45:36.726Z,99026.06
2019-02-28T20:48:09.134Z,99021.25
2019-02-28T20:50:43.104Z,99008.84
2019-02-28T20:53:15.278Z,99004.55
2019-02-28T20:55:48.073Z,99002.84
2019-02-28T20:58:19.780Z,99008.33
2019-02-28T21:00:51.859Z,98997.25
2019-02-28T21:03:24.389Z,99002.81
2019-02-28T21:05:56.424Z,99003.56
2019-02-28T21:08:28.398Z,98998.77
2019-02-28T21:11:00.614Z,99001.55
2019-02-28T21:13:32.393Z,98996.80
2019-02-28T21:16:04.287Z,99002.00
2019-02-28T21:18:36.146Z,99003.92
2019-02-28T21:21:08.391Z,99007.16
2019-02-28T21:23:40.634Z,99006.07
2019-02-28T21:26:12.814Z,99001.75
2019-02-28T21:28:44.811Z,99002.72
2019-02-28T21:31:16.789Z,99014.75
2019-02-28T21:33:49.018Z,99017.11
2019-02-28T21:36:21.097Z,99022.30
2019-02-28T21:38:53.312Z,99013.24
2019-02-28T21:41:25.516Z,99010.66
2019-02-28T21:43:58.897Z,99000.65
2019-02-28T21:46:30.961Z,99003.09
2019-02-28T21:49:03.426Z,99004.98
2019-02-28T21:51:35.714Z,99011.84
2019-02-28T21:54:08.883Z,99015.35
2019-02-28T21:56:41.583Z,99013.29
2019-02-28T21:59:13.613Z,99009.66
2019-02-28T22:01:46.023Z,99015.00
2019-02-28T22:04:18.131Z,99019.85
2019-02-28T22:06:50.362Z,99024.58
2019-02-28T22:09:22.414Z,99017.30
2019-02-28T22:11:55.141Z,99022.52
2019-02-28T22:14:27.480Z,99017.34
2019-02-28T22:16:59.301Z,99022.36
2019-02-28T22:19:31.284Z,99021.59
2019-02-28T22:22:04.372Z,99022.23
2019-02-28T22:24:36.312Z,99018.31
2019-02-28T22:27:08.408Z,99015.11
2019-02-28T22:29:40.650Z,99013.58
2019-02-28T22:32:25.596Z,99008.11
2019-02-28T22:35:16.168Z,99013.91
2019-02-28T22:37:48.237Z,99023.66
2019-02-28T22:40:21.592Z,99025.48
2019-02-28T22:42:53.311Z,99031.72
2019-02-28T22:45:25.017Z,99026.98
2019-02-28T22:47:57.081Z,99028.88
2019-02-28T22:50:29.099Z,99019.98
2019-02-28T22:53:02.364Z,99018.31
2019-02-28T22:55:34.055Z,99013.25
2019-02-28T22:58:10.833Z,99014.11
2019-02-28T23:01:14.541Z,99025.75
2019-02-28T23:03:46.003Z,99019.27
2019-02-28T23:06:18.684Z,99005.80
2019-02-28T23:08:50.290Z,99006.52
2019-02-28T23:11:22.931Z,99005.47
2019-02-28T23:13:54.720Z,99010.61
2019-02-28T23:16:26.997Z,99011.21
2019-02-28T23:18:58.892Z,99011.11
2019-02-28T23:21:30.624Z,99005.30
2019-02-28T23:24:02.568Z,98994.11
2019-02-28T23:26:56.106Z,98999.09
2019-02-28T23:29:29.332Z,98990.63
2019-02-28T23:32:44.013Z,98994.34
2019-02-28T23:35:26.465Z,98995.87
2019-02-28T23:37:58.079Z,98984.82
2019-02-28T23:40:29.832Z,98982.65
2019-02-28T23:43:01.437Z,98981.71
2019-02-28T23:45:33.217Z,98977.67
2019-02-28T23:48:05.038Z,98969.88
2019-02-28T23:50:36.754Z,98964.11
2019-02-28T23:53:08.829Z,98961.95
2019-02-28T23:55:40.481Z,98956.97
2019-02-28T23:58:12.068Z,98950.36
